createdAt,value
2019-05-03T00:00:47.415Z,32.53
2019-05-03T00:02:27.329Z,32.62
2019-05-03T00:03:32.694Z,32.61
2019-05-03T00:04:38.256Z,33.39
2019-05-03T00:05:52.503Z,32.94
2019-05-03T00:06:57.474Z,33.13
2019-05-03T00:08:07.160Z,33.89
2019-05-03T00:09:13.848Z,32.98
2019-05-03T00:10:19.334Z,32.96
2019-05-03T00:11:24.325Z,33.61
2019-05-03T00:12:28.812Z,32.84
2019-05-03T00:13:36.339Z,33.08
2019-05-03T00:14:42.981Z,33.27
2019-05-03T00:16:18.730Z,33.00
2019-05-03T00:17:23.671Z,32.70
2019-05-03T00:18:28.949Z,32.38
2019-05-03T00:19:34.296Z,32.28
2019-05-03T00:20:39.321Z,32.36
2019-05-03T00:21:43.815Z,32.73
2019-05-03T00:22:49.077Z,32.28
2019-05-03T00:23:54.020Z,32.71
2019-05-03T00:25:05.953Z,32.82
2019-05-03T00:26:05.451Z,33.02
2019-05-03T00:27:12.317Z,33.49
2019-05-03T00:28:17.159Z,33.43
2019-05-03T00:29:22.135Z,32.61
2019-05-03T00:30:27.418Z,32.58
2019-05-03T00:31:32.115Z,33.55
2019-05-03T00:32:37.406Z,34.40
2019-05-03T00:33:44.703Z,32.84
2019-05-03T00:34:52.374Z,32.94
2019-05-03T00:36:14.621Z,32.86
2019-05-03T00:37:22.101Z,32.95
2019-05-03T00:38:27.183Z,32.32
2019-05-03T00:39:36.224Z,32.94
2019-05-03T00:40:41.682Z,32.72
2019-05-03T00:41:46.677Z,32.67
2019-05-03T00:42:51.780Z,32.48
2019-05-03T00:43:56.463Z,31.57
2019-05-03T00:45:02.319Z,31.89
2019-05-03T00:46:07.048Z,32.17
2019-05-03T00:47:12.569Z,32.12
2019-05-03T00:48:17.827Z,32.22
2019-05-03T00:49:22.845Z,32.06
2019-05-03T00:50:27.812Z,32.01
2019-05-03T00:51:32.586Z,31.59
2019-05-03T00:52:37.849Z,32.00
2019-05-03T00:53:42.842Z,32.56
2019-05-03T00:54:48.097Z,31.81
2019-05-03T00:55:52.813Z,32.09
2019-05-03T00:56:57.861Z,32.29
2019-05-03T00:58:02.714Z,31.79
2019-05-03T00:59:07.440Z,32.16
2019-05-03T01:00:12.641Z,32.09
2019-05-03T01:01:17.765Z,31.63
2019-05-03T01:02:22.732Z,31.45
2019-05-03T01:03:27.735Z,31.63
2019-05-03T01:04:33.273Z,32.01
2019-05-03T01:05:38.532Z,32.14
2019-05-03T01:06:43.499Z,31.82
2019-05-03T01:07:48.790Z,31.43
2019-05-03T01:08:53.850Z,31.11
2019-05-03T01:09:58.843Z,31.40
2019-05-03T01:11:03.549Z,32.14
2019-05-03T01:12:08.041Z,31.25
2019-05-03T01:13:13.302Z,30.55
2019-05-03T01:14:18.329Z,32.35
2019-05-03T01:15:57.183Z,31.40
2019-05-03T01:17:02.729Z,30.95
2019-05-03T01:18:08.527Z,31.61
2019-05-03T01:19:13.231Z,31.24
2019-05-03T01:20:17.932Z,30.97
2019-05-03T01:21:22.979Z,31.34
2019-05-03T01:22:28.280Z,30.95
2019-05-03T01:23:33.263Z,30.62
2019-05-03T01:24:38.233Z,30.47
2019-05-03T01:25:43.274Z,30.73
2019-05-03T01:26:48.520Z,30.55
2019-05-03T01:27:53.743Z,30.56
2019-05-03T01:28:59.002Z,30.55
2019-05-03T01:30:04.092Z,31.38
2019-05-03T01:31:08.985Z,31.24
2019-05-03T01:32:13.936Z,31.78
2019-05-03T01:33:18.632Z,31.03
2019-05-03T01:34:23.176Z,30.83
2019-05-03T01:35:28.168Z,31.10
2019-05-03T01:36:34.061Z,30.93
2019-05-03T01:37:38.767Z,30.76
2019-05-03T01:38:43.445Z,31.29
2019-05-03T01:39:48.764Z,31.52
2019-05-03T01:40:53.467Z,30.99
2019-05-03T01:41:58.455Z,31.12
2019-05-03T01:43:03.474Z,30.74
2019-05-03T01:44:08.720Z,31.45
2019-05-03T01:45:14.138Z,30.87
2019-05-03T01:46:19.379Z,31.18
2019-05-03T01:47:32.614Z,31.02
2019-05-03T01:48:52.247Z,31.54
2019-05-03T01:50:06.398Z,32.03
2019-05-03T01:51:22.518Z,31.31
2019-05-03T01:52:33.317Z,31.17
2019-05-03T01:53:38.545Z,31.29
2019-05-03T01:54:43.522Z,31.96
2019-05-03T01:55:54.594Z,31.74
2019-05-03T01:56:59.843Z,31.36
2019-05-03T01:58:04.788Z,31.63
2019-05-03T01:59:09.790Z,31.28
2019-05-03T02:00:19.451Z,31.28
2019-05-03T02:01:42.070Z,31.50
2019-05-03T02:03:06.270Z,31.43
2019-05-03T02:04:17.005Z,31.90
2019-05-03T02:05:42.910Z,31.44
2019-05-03T02:06:48.308Z,31.01
2019-05-03T02:07:53.554Z,31.15
2019-05-03T02:08:58.810Z,31.53
2019-05-03T02:10:03.814Z,31.60
2019-05-03T02:11:08.564Z,31.51
2019-05-03T02:12:13.804Z,31.07
2019-05-03T02:13:18.769Z,30.83
2019-05-03T02:14:24.033Z,30.83
2019-05-03T02:15:28.815Z,31.20
2019-05-03T02:16:33.682Z,31.19
2019-05-03T02:17:38.934Z,31.00
2019-05-03T02:18:43.918Z,30.88
2019-05-03T02:19:49.438Z,30.59
2019-05-03T02:20:54.459Z,30.62
2019-05-03T02:22:00.061Z,31.34
2019-05-03T02:23:04.877Z,31.38
2019-05-03T02:24:11.651Z,30.43
2019-05-03T02:25:16.543Z,30.74
2019-05-03T02:26:22.413Z,30.55
2019-05-03T02:27:27.235Z,30.95
2019-05-03T02:28:32.673Z,31.26
2019-05-03T02:29:38.031Z,30.78
2019-05-03T02:30:44.157Z,30.92
2019-05-03T02:31:49.659Z,30.89
2019-05-03T02:32:54.114Z,30.72
2019-05-03T02:34:00.126Z,30.89
2019-05-03T02:35:04.967Z,30.76
2019-05-03T02:36:09.938Z,30.68
2019-05-03T02:37:15.125Z,30.80
2019-05-03T02:38:19.894Z,30.99
2019-05-03T02:39:24.596Z,30.67
2019-05-03T02:40:29.873Z,31.07
2019-05-03T02:41:35.024Z,30.82
2019-05-03T02:42:39.754Z,30.77
2019-05-03T02:43:47.659Z,30.77
2019-05-03T02:44:52.351Z,32.05
2019-05-03T02:46:16.761Z,31.68
2019-05-03T02:47:31.890Z,31.39
2019-05-03T02:48:46.500Z,31.55
2019-05-03T02:49:58.899Z,31.46
2019-05-03T02:51:06.530Z,31.98
2019-05-03T02:52:30.384Z,31.26
2019-05-03T02:53:36.096Z,30.91
2019-05-03T02:54:41.233Z,31.05
2019-05-03T02:55:46.757Z,31.80
2019-05-03T02:56:52.028Z,31.40
2019-05-03T02:57:57.018Z,31.55
2019-05-03T02:59:01.517Z,31.59
2019-05-03T03:00:08.778Z,31.21
2019-05-03T03:01:16.036Z,31.40
2019-05-03T03:02:20.285Z,31.19
2019-05-03T03:03:25.577Z,31.87
2019-05-03T03:04:31.106Z,32.47
2019-05-03T03:05:36.579Z,32.24
2019-05-03T03:06:45.415Z,32.31
2019-05-03T03:07:52.755Z,32.49
2019-05-03T03:08:59.377Z,32.26
2019-05-03T03:10:06.283Z,32.10
2019-05-03T03:11:10.964Z,32.68
2019-05-03T03:12:17.014Z,32.64
2019-05-03T03:13:25.363Z,33.41
2019-05-03T03:14:36.368Z,33.28
2019-05-03T03:15:45.703Z,33.12
2019-05-03T03:16:52.212Z,33.01
2019-05-03T03:17:59.720Z,33.62
2019-05-03T03:19:06.686Z,33.75
2019-05-03T03:20:12.448Z,33.34
2019-05-03T03:21:18.197Z,32.59
2019-05-03T03:22:25.969Z,32.96
2019-05-03T03:23:35.500Z,32.16
2019-05-03T03:24:45.802Z,32.41
2019-05-03T03:25:51.714Z,32.47
2019-05-03T03:26:58.899Z,32.66
2019-05-03T03:28:05.518Z,33.02
2019-05-03T03:29:11.386Z,33.09
2019-05-03T03:30:38.869Z,32.96
2019-05-03T03:32:00.048Z,32.59
2019-05-03T03:33:09.044Z,33.15
2019-05-03T03:34:18.258Z,33.61
2019-05-03T03:35:29.907Z,33.64
2019-05-03T03:36:50.539Z,33.08
2019-05-03T03:37:41.668Z,33.33
2019-05-03T03:38:46.880Z,32.95
2019-05-03T03:39:52.548Z,32.99
2019-05-03T03:40:58.981Z,32.24
2019-05-03T03:42:05.522Z,33.05
2019-05-03T03:43:11.109Z,33.37
2019-05-03T03:44:19.050Z,32.77
2019-05-03T03:45:25.374Z,32.97
2019-05-03T03:46:32.439Z,32.76
2019-05-03T03:47:39.830Z,32.49
2019-05-03T03:48:46.146Z,32.77
2019-05-03T03:49:55.203Z,33.21
2019-05-03T03:51:00.390Z,32.65
2019-05-03T03:52:06.272Z,32.82
2019-05-03T03:53:15.264Z,32.21
2019-05-03T03:54:20.141Z,33.20
2019-05-03T03:55:26.472Z,32.88
2019-05-03T03:56:46.038Z,32.66
2019-05-03T03:57:41.692Z,32.84
2019-05-03T03:58:46.952Z,32.70
2019-05-03T03:59:51.650Z,32.90
2019-05-03T04:00:56.907Z,32.63
2019-05-03T04:02:01.993Z,32.66
2019-05-03T04:03:06.902Z,32.63
2019-05-03T04:04:12.245Z,32.95
2019-05-03T04:05:17.240Z,32.57
2019-05-03T04:06:26.867Z,32.18
2019-05-03T04:07:31.629Z,32.43
2019-05-03T04:08:36.667Z,33.57
2019-05-03T04:09:42.216Z,32.60
2019-05-03T04:10:47.753Z,33.03
2019-05-03T04:11:53.339Z,33.63
2019-05-03T04:12:59.387Z,33.71
2019-05-03T04:14:05.434Z,33.32
2019-05-03T04:15:41.041Z,32.80
2019-05-03T04:17:10.740Z,33.00
2019-05-03T04:18:25.690Z,32.69
2019-05-03T04:19:32.507Z,32.59
2019-05-03T04:20:37.948Z,33.58
2019-05-03T04:21:45.217Z,34.22
2019-05-03T04:22:49.944Z,34.17
2019-05-03T04:23:55.665Z,33.08
2019-05-03T04:25:00.599Z,32.87
2019-05-03T04:26:12.803Z,32.74
2019-05-03T04:27:23.285Z,32.77
2019-05-03T04:28:25.684Z,33.37
2019-05-03T04:29:32.176Z,34.56
2019-05-03T04:30:37.051Z,33.80
2019-05-03T04:31:42.018Z,32.42
2019-05-03T04:32:46.504Z,32.42
2019-05-03T04:33:51.815Z,33.33
2019-05-03T04:34:56.550Z,33.23
2019-05-03T04:36:01.810Z,33.15
2019-05-03T04:37:06.621Z,33.51
2019-05-03T04:38:11.881Z,33.37
2019-05-03T04:39:19.992Z,33.13
2019-05-03T04:40:25.680Z,33.14
2019-05-03T04:41:30.338Z,33.08
2019-05-03T04:42:35.742Z,32.34
2019-05-03T04:43:40.653Z,32.40
2019-05-03T04:44:45.916Z,32.22
2019-05-03T04:46:06.566Z,32.15
2019-05-03T04:47:11.864Z,32.99
2019-05-03T04:48:17.280Z,31.87
2019-05-03T04:49:25.844Z,32.17
2019-05-03T04:50:29.121Z,32.62
2019-05-03T04:51:35.009Z,32.45
2019-05-03T04:52:39.846Z,32.48
2019-05-03T04:53:48.436Z,32.59
2019-05-03T04:54:57.792Z,33.04
2019-05-03T04:56:05.549Z,32.16
2019-05-03T04:57:09.527Z,32.85
2019-05-03T04:58:16.095Z,33.04
2019-05-03T04:59:21.541Z,32.47
2019-05-03T05:00:26.730Z,32.21
2019-05-03T05:01:35.139Z,32.20
2019-05-03T05:02:39.684Z,33.58
2019-05-03T05:03:45.703Z,32.40
2019-05-03T05:04:50.778Z,31.98
2019-05-03T05:05:59.267Z,33.18
2019-05-03T05:07:03.091Z,33.86
2019-05-03T05:08:07.760Z,32.36
2019-05-03T05:09:15.352Z,32.42
2019-05-03T05:10:20.010Z,31.61
2019-05-03T05:11:26.375Z,31.28
2019-05-03T05:12:31.554Z,33.15
2019-05-03T05:13:36.575Z,32.24
2019-05-03T05:14:42.146Z,32.72
2019-05-03T05:15:47.424Z,32.67
2019-05-03T05:16:55.476Z,32.41
2019-05-03T05:18:16.672Z,33.53
2019-05-03T05:19:28.164Z,32.55
2019-05-03T05:20:46.538Z,32.29
2019-05-03T05:21:55.052Z,31.85
2019-05-03T05:22:59.764Z,32.01
2019-05-03T05:24:05.811Z,32.02
2019-05-03T05:25:14.892Z,32.48
2019-05-03T05:26:21.430Z,32.08
2019-05-03T05:27:34.629Z,32.68
2019-05-03T05:28:44.751Z,32.04
2019-05-03T05:29:49.514Z,32.23
2019-05-03T05:30:54.805Z,33.50
2019-05-03T05:31:59.770Z,32.67
2019-05-03T05:33:05.438Z,33.09
2019-05-03T05:34:10.405Z,32.23
2019-05-03T05:35:15.380Z,31.75
2019-05-03T05:36:20.366Z,32.06
2019-05-03T05:37:25.906Z,31.50
2019-05-03T05:38:30.874Z,32.20
2019-05-03T05:39:35.840Z,31.29
2019-05-03T05:40:40.838Z,30.97
2019-05-03T05:41:45.823Z,31.22
2019-05-03T05:42:50.345Z,31.29
2019-05-03T05:43:55.125Z,31.03
2019-05-03T05:45:00.071Z,31.13
2019-05-03T05:46:05.364Z,31.11
2019-05-03T05:47:35.110Z,30.52
2019-05-03T05:48:45.276Z,30.59
2019-05-03T05:50:00.260Z,30.37
2019-05-03T05:51:04.702Z,30.19
2019-05-03T05:52:09.803Z,30.53
2019-05-03T05:53:15.409Z,30.61
2019-05-03T05:54:20.371Z,30.27
2019-05-03T05:55:50.391Z,30.24
2019-05-03T05:57:02.504Z,30.10
2019-05-03T05:58:25.378Z,29.67
2019-05-03T05:59:50.907Z,29.57
2019-05-03T06:01:09.625Z,29.47
2019-05-03T06:02:15.075Z,29.43
2019-05-03T06:03:20.073Z,29.67
2019-05-03T06:04:25.013Z,30.03
2019-05-03T06:05:30.026Z,29.70
2019-05-03T06:06:42.279Z,30.16
2019-05-03T06:08:00.601Z,29.54
2019-05-03T06:09:22.359Z,29.41
2019-05-03T06:10:34.824Z,29.45
2019-05-03T06:12:01.968Z,27.83
2019-05-03T06:13:11.615Z,27.94
2019-05-03T06:14:45.297Z,27.93
2019-05-03T06:15:58.265Z,28.32
2019-05-03T06:17:09.345Z,28.23
2019-05-03T06:18:19.089Z,28.06
2019-05-03T06:19:30.935Z,28.26
2019-05-03T06:20:45.078Z,28.27
2019-05-03T06:21:59.763Z,28.46
2019-05-03T06:23:08.884Z,27.98
2019-05-03T06:24:19.319Z,27.23
2019-05-03T06:25:30.868Z,26.59
2019-05-03T06:26:38.214Z,26.51
2019-05-03T06:27:44.874Z,26.56
2019-05-03T06:28:49.368Z,26.53
2019-05-03T06:29:56.104Z,26.12
2019-05-03T06:31:10.554Z,25.97
2019-05-03T06:32:34.650Z,26.00
2019-05-03T06:33:39.271Z,25.46
2019-05-03T06:34:45.526Z,25.20
2019-05-03T06:35:50.272Z,25.13
2019-05-03T06:36:57.093Z,24.53
2019-05-03T06:38:02.381Z,23.98
2019-05-03T06:39:09.346Z,24.02
2019-05-03T06:40:15.016Z,23.57
2019-05-03T06:41:20.314Z,22.03
2019-05-03T06:42:25.606Z,22.08
2019-05-03T06:43:31.207Z,22.08
2019-05-03T06:44:36.169Z,22.21
2019-05-03T06:45:46.650Z,21.79
2019-05-03T06:46:48.273Z,21.79
2019-05-03T06:47:55.066Z,21.38
2019-05-03T06:49:01.007Z,21.38
2019-05-03T06:50:06.355Z,20.29
2019-05-03T06:51:15.940Z,20.08
2019-05-03T06:52:19.897Z,20.64
2019-05-03T06:53:25.538Z,19.96
2019-05-03T06:54:30.938Z,19.90
2019-05-03T06:55:40.012Z,20.83
2019-05-03T06:56:42.556Z,21.03
2019-05-03T06:57:49.566Z,21.28
2019-05-03T06:58:55.223Z,22.29
2019-05-03T07:00:10.692Z,22.44
2019-05-03T07:01:25.328Z,22.78
2019-05-03T07:02:54.844Z,22.49
2019-05-03T07:04:10.721Z,23.20
2019-05-03T07:05:36.407Z,21.99
2019-05-03T07:06:59.962Z,20.81
2019-05-03T07:08:29.730Z,22.04
2019-05-03T07:09:44.344Z,21.45
2019-05-03T07:10:51.926Z,20.38
2019-05-03T07:11:56.908Z,20.20
2019-05-03T07:13:04.752Z,18.64
2019-05-03T07:14:09.371Z,16.67
2019-05-03T07:15:14.498Z,17.12
2019-05-03T07:16:19.488Z,15.72
2019-05-03T07:17:24.839Z,15.64
2019-05-03T07:18:30.177Z,17.00
2019-05-03T07:19:35.518Z,17.44
2019-05-03T07:20:46.897Z,17.63
2019-05-03T07:21:52.161Z,17.22
2019-05-03T07:22:57.050Z,17.38
2019-05-03T07:24:02.041Z,17.93
2019-05-03T07:25:06.791Z,18.36
2019-05-03T07:26:12.071Z,17.82
2019-05-03T07:27:17.057Z,18.47
2019-05-03T07:28:24.839Z,18.72
2019-05-03T07:29:30.156Z,19.24
2019-05-03T07:30:37.056Z,19.04
2019-05-03T07:31:44.594Z,18.82
2019-05-03T07:32:54.560Z,16.12
2019-05-03T07:33:59.581Z,15.29
2019-05-03T07:35:04.614Z,16.69
2019-05-03T07:36:09.291Z,17.39
2019-05-03T07:37:14.586Z,17.98
2019-05-03T07:38:19.836Z,19.47
2019-05-03T07:39:24.821Z,20.19
2019-05-03T07:40:30.067Z,20.19
2019-05-03T07:41:35.708Z,20.05
2019-05-03T07:42:40.364Z,20.98
2019-05-03T07:43:45.349Z,20.70
2019-05-03T07:44:50.255Z,21.01
2019-05-03T07:45:55.527Z,20.67
2019-05-03T07:47:00.776Z,20.76
2019-05-03T07:48:05.238Z,21.29
2019-05-03T07:49:10.648Z,20.89
2019-05-03T07:50:15.619Z,20.40
2019-05-03T07:51:20.415Z,19.39
2019-05-03T07:52:25.825Z,18.40
2019-05-03T07:53:34.859Z,19.79
2019-05-03T07:54:40.057Z,17.52
2019-05-03T07:55:56.435Z,18.35
2019-05-03T07:57:06.386Z,17.55
2019-05-03T07:58:15.050Z,12.94
2019-05-03T07:59:19.923Z,11.06
2019-05-03T08:00:25.995Z,13.20
2019-05-03T08:01:40.100Z,16.47
2019-05-03T08:02:45.401Z,17.18
2019-05-03T08:03:50.101Z,18.22
2019-05-03T08:04:55.364Z,18.71
2019-05-03T08:06:00.635Z,19.04
2019-05-03T08:07:05.575Z,19.91
2019-05-03T08:08:10.533Z,19.32
2019-05-03T08:09:15.617Z,19.09
2019-05-03T08:10:20.314Z,18.90
2019-05-03T08:11:25.270Z,18.55
2019-05-03T08:12:30.534Z,18.55
2019-05-03T08:13:36.106Z,19.17
2019-05-03T08:14:40.786Z,19.85
2019-05-03T08:15:45.516Z,20.31
2019-05-03T08:16:50.004Z,20.54
2019-05-03T08:17:55.451Z,20.47
2019-05-03T08:19:00.257Z,21.76
2019-05-03T08:20:05.309Z,21.05
2019-05-03T08:21:10.348Z,21.04
2019-05-03T08:22:15.334Z,20.66
2019-05-03T08:23:27.491Z,20.76
2019-05-03T08:24:27.308Z,21.63
2019-05-03T08:25:32.026Z,22.49
2019-05-03T08:26:37.325Z,22.99
2019-05-03T08:27:41.829Z,22.10
2019-05-03T08:28:46.814Z,22.21
2019-05-03T08:29:51.498Z,21.36
2019-05-03T08:31:18.085Z,21.36
2019-05-03T08:32:35.267Z,20.82
2019-05-03T08:34:04.976Z,20.70
2019-05-03T08:35:20.027Z,21.04
2019-05-03T08:36:25.320Z,20.03
2019-05-03T08:37:41.597Z,20.68
2019-05-03T08:38:46.391Z,20.97
2019-05-03T08:39:51.466Z,20.85
2019-05-03T08:40:57.206Z,20.71
2019-05-03T08:42:04.800Z,21.93
2019-05-03T08:43:09.549Z,21.18
2019-05-03T08:44:14.621Z,20.94
2019-05-03T08:45:19.124Z,20.93
2019-05-03T08:46:25.346Z,20.57
2019-05-03T08:47:34.401Z,21.63
2019-05-03T08:48:37.190Z,21.70
2019-05-03T08:49:42.449Z,21.69
2019-05-03T08:50:46.892Z,21.78
2019-05-03T08:51:52.147Z,21.54
2019-05-03T08:52:57.264Z,21.80
2019-05-03T08:54:02.249Z,21.51
2019-05-03T08:55:07.210Z,21.59
2019-05-03T08:56:12.758Z,21.24
2019-05-03T08:57:17.734Z,19.30
2019-05-03T08:58:22.704Z,19.07
2019-05-03T08:59:32.323Z,19.60
2019-05-03T09:00:36.125Z,20.51
2019-05-03T09:01:41.104Z,20.66
2019-05-03T09:02:45.819Z,20.89
2019-05-03T09:03:51.095Z,19.95
2019-05-03T09:04:55.775Z,20.86
2019-05-03T09:06:00.787Z,20.42
2019-05-03T09:07:05.597Z,20.06
2019-05-03T09:08:10.286Z,20.51
2019-05-03T09:09:25.702Z,20.61
2019-05-03T09:10:48.846Z,20.69
2019-05-03T09:11:55.683Z,20.96
2019-05-03T09:13:17.549Z,20.52
2019-05-03T09:14:24.449Z,20.20
2019-05-03T09:15:29.890Z,21.01
2019-05-03T09:16:35.593Z,20.74
2019-05-03T09:17:40.343Z,21.17
2019-05-03T09:18:45.552Z,21.01
2019-05-03T09:19:50.566Z,21.06
2019-05-03T09:20:55.614Z,20.82
2019-05-03T09:22:00.355Z,18.80
2019-05-03T09:23:05.662Z,16.87
2019-05-03T09:24:11.240Z,15.88
2019-05-03T09:25:16.035Z,16.25
2019-05-03T09:26:20.485Z,13.55
2019-05-03T09:27:25.656Z,15.09
2019-05-03T09:28:30.623Z,15.91
2019-05-03T09:29:43.067Z,16.49
2019-05-03T09:30:42.159Z,16.54
2019-05-03T09:31:47.432Z,16.62
2019-05-03T09:32:52.665Z,15.99
2019-05-03T09:33:57.642Z,17.20
2019-05-03T09:35:05.416Z,17.87
2019-05-03T09:36:09.899Z,18.80
2019-05-03T09:37:15.545Z,19.68
2019-05-03T09:38:20.559Z,19.68
2019-05-03T09:39:25.555Z,19.00
2019-05-03T09:40:30.278Z,19.00
2019-05-03T09:41:35.305Z,19.01
2019-05-03T09:42:40.294Z,18.88
2019-05-03T09:43:45.328Z,19.16
2019-05-03T09:44:52.483Z,17.63
2019-05-03T09:45:56.550Z,17.03
2019-05-03T09:47:01.788Z,15.76
2019-05-03T09:48:06.552Z,12.47
2019-05-03T09:49:15.852Z,11.53
2019-05-03T09:50:18.044Z,10.00
2019-05-03T09:51:22.505Z,9.18
2019-05-03T09:52:27.200Z,9.18
2019-05-03T09:53:36.037Z,8.54
2019-05-03T09:54:48.239Z,8.04
2019-05-03T09:55:52.934Z,7.72
2019-05-03T09:56:58.962Z,7.16
2019-05-03T09:58:05.594Z,6.74
2019-05-03T09:59:10.962Z,7.46
2019-05-03T10:00:17.504Z,6.48
2019-05-03T10:01:22.772Z,6.83
2019-05-03T10:02:27.473Z,5.94
2019-05-03T10:03:32.177Z,6.14
2019-05-03T10:04:36.968Z,6.81
2019-05-03T10:05:41.906Z,6.94
2019-05-03T10:06:46.915Z,7.33
2019-05-03T10:07:51.368Z,10.39
2019-05-03T10:08:56.330Z,10.25
2019-05-03T10:10:01.307Z,12.33
2019-05-03T10:11:15.147Z,11.16
2019-05-03T10:12:20.975Z,10.57
2019-05-03T10:13:27.285Z,13.10
2019-05-03T10:14:32.382Z,13.44
2019-05-03T10:15:42.125Z,14.04
2019-05-03T10:17:18.183Z,14.26
2019-05-03T10:18:25.251Z,15.99
2019-05-03T10:19:37.693Z,16.02
2019-05-03T10:20:36.007Z,17.73
2019-05-03T10:21:44.892Z,18.51
2019-05-03T10:22:49.669Z,18.56
2019-05-03T10:23:54.847Z,18.79
2019-05-03T10:24:59.817Z,19.02
2019-05-03T10:26:05.155Z,17.98
2019-05-03T10:27:09.733Z,16.46
2019-05-03T10:28:15.325Z,13.87
2019-05-03T10:29:19.993Z,12.77
2019-05-03T10:30:28.460Z,11.54
2019-05-03T10:31:40.820Z,10.79
2019-05-03T10:32:48.486Z,10.12
2019-05-03T10:33:57.723Z,8.29
2019-05-03T10:35:05.782Z,8.44
2019-05-03T10:36:10.792Z,8.96
2019-05-03T10:37:30.433Z,8.56
2019-05-03T10:38:35.208Z,8.72
2019-05-03T10:39:40.175Z,8.77
2019-05-03T10:40:45.399Z,8.32
2019-05-03T10:41:50.620Z,7.93
2019-05-03T10:42:55.980Z,8.87
2019-05-03T10:44:00.687Z,8.35
2019-05-03T10:45:05.459Z,7.91
2019-05-03T10:46:10.481Z,7.71
2019-05-03T10:47:15.459Z,7.33
2019-05-03T10:48:20.473Z,7.77
2019-05-03T10:49:25.264Z,7.78
2019-05-03T10:50:29.958Z,7.46
2019-05-03T10:51:39.249Z,7.67
2019-05-03T10:52:49.404Z,7.37
2019-05-03T10:53:57.647Z,7.13
2019-05-03T10:55:02.587Z,7.01
2019-05-03T10:56:22.860Z,6.02
2019-05-03T10:57:25.365Z,7.50
2019-05-03T10:58:30.650Z,7.45
2019-05-03T10:59:35.648Z,7.63
2019-05-03T11:00:49.533Z,6.76
2019-05-03T11:02:07.355Z,6.54
2019-05-03T11:03:13.478Z,6.59
2019-05-03T11:04:18.737Z,8.24
2019-05-03T11:05:24.016Z,6.72
2019-05-03T11:06:29.025Z,5.85
2019-05-03T11:07:34.599Z,6.34
2019-05-03T11:08:39.320Z,7.38
2019-05-03T11:09:49.686Z,8.15
2019-05-03T11:10:51.093Z,7.12
2019-05-03T11:11:56.694Z,6.70
2019-05-03T11:13:01.923Z,7.25
2019-05-03T11:14:06.677Z,9.89
2019-05-03T11:15:11.630Z,10.54
2019-05-03T11:16:16.082Z,8.12
2019-05-03T11:17:21.054Z,7.08
2019-05-03T11:18:26.027Z,7.42
2019-05-03T11:19:31.036Z,6.78
2019-05-03T11:20:36.350Z,6.82
2019-05-03T11:21:41.337Z,6.45
2019-05-03T11:22:46.056Z,6.79
2019-05-03T11:23:51.324Z,6.69
2019-05-03T11:24:56.301Z,6.13
2019-05-03T11:26:01.568Z,5.77
2019-05-03T11:27:11.443Z,5.90
2019-05-03T11:28:20.941Z,5.64
2019-05-03T11:29:25.951Z,6.17
2019-05-03T11:30:30.934Z,6.24
2019-05-03T11:32:09.272Z,5.28
2019-05-03T11:33:17.621Z,7.24
2019-05-03T11:34:25.334Z,8.23
2019-05-03T11:35:41.215Z,9.39
2019-05-03T11:36:50.246Z,11.57
2019-05-03T11:38:15.075Z,11.60
2019-05-03T11:39:20.338Z,12.61
2019-05-03T11:40:25.610Z,12.53
2019-05-03T11:41:32.926Z,13.05
2019-05-03T11:42:37.665Z,12.91
2019-05-03T11:43:44.372Z,11.53
2019-05-03T11:44:49.395Z,10.79
2019-05-03T11:45:55.488Z,10.83
2019-05-03T11:47:00.252Z,8.78
2019-05-03T11:48:05.175Z,8.54
2019-05-03T11:49:10.237Z,10.75
2019-05-03T11:50:15.004Z,11.80
2019-05-03T11:51:20.656Z,12.13
2019-05-03T11:52:25.874Z,12.04
2019-05-03T11:53:30.686Z,10.09
2019-05-03T11:54:35.929Z,7.94
2019-05-03T11:55:40.759Z,8.29
2019-05-03T11:56:45.363Z,6.84
2019-05-03T11:57:50.591Z,6.86
2019-05-03T11:58:55.134Z,6.55
2019-05-03T12:00:00.036Z,5.74
2019-05-03T12:01:18.881Z,5.98
2019-05-03T12:02:25.604Z,5.54
2019-05-03T12:03:35.518Z,8.70
2019-05-03T12:04:40.638Z,10.03
2019-05-03T12:05:48.551Z,11.26
2019-05-03T12:06:54.999Z,11.73
2019-05-03T12:08:00.014Z,11.65
2019-05-03T12:09:05.675Z,9.46
2019-05-03T12:10:26.837Z,8.69
2019-05-03T12:11:18.185Z,7.65
2019-05-03T12:12:29.556Z,8.14
2019-05-03T12:13:34.053Z,9.09
2019-05-03T12:14:39.032Z,10.74
2019-05-03T12:15:44.622Z,11.87
2019-05-03T12:17:14.642Z,11.20
2019-05-03T12:18:05.955Z,12.15
2019-05-03T12:19:17.116Z,12.55
2019-05-03T12:20:19.227Z,12.59
2019-05-03T12:21:26.585Z,12.92
2019-05-03T12:22:30.735Z,13.24
2019-05-03T12:23:37.069Z,13.88
2019-05-03T12:24:45.532Z,14.49
2019-05-03T12:25:50.011Z,13.91
2019-05-03T12:26:55.818Z,14.26
2019-05-03T12:28:00.836Z,14.63
2019-05-03T12:29:05.640Z,14.19
2019-05-03T12:30:10.533Z,13.94
2019-05-03T12:31:29.624Z,13.96
2019-05-03T12:32:21.936Z,13.96
2019-05-03T12:33:26.903Z,13.69
2019-05-03T12:34:31.738Z,13.53
2019-05-03T12:35:36.509Z,14.17
2019-05-03T12:36:41.501Z,13.77
2019-05-03T12:37:46.725Z,14.15
2019-05-03T12:38:51.701Z,15.97
2019-05-03T12:39:56.645Z,15.07
2019-05-03T12:41:01.333Z,14.69
2019-05-03T12:42:06.052Z,14.46
2019-05-03T12:43:11.307Z,15.01
2019-05-03T12:44:16.005Z,15.01
2019-05-03T12:45:20.994Z,14.55
2019-05-03T12:46:26.248Z,14.72
2019-05-03T12:47:31.393Z,14.49
2019-05-03T12:48:36.412Z,14.68
2019-05-03T12:49:41.630Z,15.11
2019-05-03T12:50:46.957Z,15.01
2019-05-03T12:51:52.282Z,14.96
2019-05-03T12:52:57.553Z,14.63
2019-05-03T12:54:04.707Z,15.83
2019-05-03T12:55:08.753Z,14.73
2019-05-03T12:56:22.033Z,15.01
2019-05-03T12:57:20.461Z,14.78
2019-05-03T12:58:45.956Z,14.73
2019-05-03T12:59:59.576Z,14.67
2019-05-03T13:01:15.852Z,14.80
2019-05-03T13:02:31.812Z,15.05
2019-05-03T13:03:44.619Z,14.76
2019-05-03T13:04:52.052Z,15.20
2019-05-03T13:05:56.330Z,15.85
2019-05-03T13:07:09.976Z,16.05
2019-05-03T13:08:36.431Z,15.86
2019-05-03T13:09:41.762Z,16.09
2019-05-03T13:10:47.097Z,16.03
2019-05-03T13:11:58.392Z,15.79
2019-05-03T13:13:00.661Z,15.43
2019-05-03T13:14:05.373Z,16.01
2019-05-03T13:15:09.853Z,15.38
2019-05-03T13:16:18.383Z,15.71
2019-05-03T13:17:36.459Z,15.32
2019-05-03T13:18:41.140Z,14.92
2019-05-03T13:19:46.191Z,15.90
2019-05-03T13:20:51.167Z,15.33
2019-05-03T13:21:56.163Z,15.13
2019-05-03T13:23:00.871Z,14.86
2019-05-03T13:24:06.108Z,15.33
2019-05-03T13:25:11.281Z,14.75
2019-05-03T13:26:15.977Z,15.16
2019-05-03T13:27:20.765Z,16.34
2019-05-03T13:28:25.531Z,15.83
2019-05-03T13:29:34.697Z,14.75
2019-05-03T13:30:39.608Z,14.66
2019-05-03T13:31:55.814Z,14.58
2019-05-03T13:33:45.608Z,15.41
2019-05-03T13:34:50.352Z,15.20
2019-05-03T13:35:55.434Z,15.40
2019-05-03T13:37:00.135Z,15.85
2019-05-03T13:38:04.819Z,15.12
2019-05-03T13:39:13.344Z,15.78
2019-05-03T13:40:15.923Z,15.97
2019-05-03T13:41:20.366Z,15.86
2019-05-03T13:42:25.346Z,16.44
2019-05-03T13:43:30.039Z,16.49
2019-05-03T13:44:35.651Z,17.00
2019-05-03T13:45:40.186Z,16.39
2019-05-03T13:46:45.144Z,16.27
2019-05-03T13:47:50.415Z,16.62
2019-05-03T13:48:55.496Z,16.81
2019-05-03T13:50:00.798Z,16.55
2019-05-03T13:51:05.848Z,17.41
2019-05-03T13:52:10.826Z,17.32
2019-05-03T13:53:16.148Z,17.77
2019-05-03T13:54:20.930Z,16.94
2019-05-03T13:55:25.625Z,17.24
2019-05-03T13:56:30.449Z,17.61
2019-05-03T13:57:35.759Z,17.24
2019-05-03T13:58:40.739Z,17.10
2019-05-03T13:59:45.787Z,16.90
2019-05-03T14:00:51.281Z,16.70
2019-05-03T14:02:10.806Z,16.98
2019-05-03T14:03:04.586Z,17.29
2019-05-03T14:04:09.943Z,16.71
2019-05-03T14:05:15.599Z,17.10
2019-05-03T14:06:20.606Z,17.01
2019-05-03T14:07:25.598Z,16.82
2019-05-03T14:08:30.824Z,16.91
2019-05-03T14:09:35.859Z,17.30
2019-05-03T14:10:40.888Z,17.19
2019-05-03T14:11:45.832Z,16.59
2019-05-03T14:12:50.512Z,16.82
2019-05-03T14:13:55.306Z,17.23
2019-05-03T14:14:59.809Z,17.09
2019-05-03T14:16:05.551Z,17.47
2019-05-03T14:17:11.030Z,16.73
2019-05-03T14:18:16.274Z,17.35
2019-05-03T14:19:27.911Z,17.57
2019-05-03T14:20:50.643Z,16.64
2019-05-03T14:21:55.748Z,16.34
2019-05-03T14:23:00.740Z,16.67
2019-05-03T14:24:12.308Z,16.83
2019-05-03T14:25:17.370Z,16.57
2019-05-03T14:26:22.166Z,17.12
2019-05-03T14:27:27.135Z,16.90
2019-05-03T14:28:34.513Z,17.01
2019-05-03T14:29:38.958Z,17.00
2019-05-03T14:30:45.406Z,16.80
2019-05-03T14:31:50.490Z,16.99